Latest Weather Observations for Melbourne Airport

IDV60901

Issued at 8:01 am EST Tuesday 7 April 2020 (issued every 10 minutes, with the page automatically refreshed every 10 minutes)

About weather observations | Map of Melbourne area stations | Latest observations for Melbourne area | Other Formats
Station Details ID: 086282 Name: MELBOURNE AIRPORT Lat: -37.67 Lon: 144.83 Height: 113.4 m
Data from the previous 72 hours. | See also: Recent months at Melbourne Airport
Date/Time
EST
Temp
°C
App
Temp
°C
Dew
Point
°C
Rel
Hum
%
Delta-T
°C
Wind Press
QNH
hPa
Press
MSL
hPa
Rain since
9am
mm
Dir  Spd
km/h
Gust
km/h
Spd
kts
Gust
kts
07/07:30am 10.9 9.6 9.9 93 0.5 WNW 7 9 4 5 1023.8 1023.7 0.4
07/07:00am 10.5 8.8 9.7 95 0.4 WNW 9 11 5 6 1023.5 1023.4 0.4
07/06:30am 10.3 8.9 9.5 95 0.4 WNW 7 9 4 5 1023.4 1023.3 0.4
07/06:00am 10.3 8.9 9.5 95 0.4 WNW 7 9 4 5 1023.3 1023.2 0.4
07/05:30am 10.4 8.9 9.2 92 0.6 SSW 7 7 4 4 1023.1 1023.0 0.4
07/05:24am 10.4 8.9 9.0 91 0.7 SSE 7 11 4 6 1023.1 1023.0 0.4
07/05:00am 10.7 9.0 9.9 95 0.4 E 9 11 5 6 1023.1 1023.0 0.0
07/04:37am 11.0 9.2 9.4 90 0.8 SE 9 13 5 7 1023.1 1023.0 0.0
07/04:30am 11.3 9.7 8.7 84 1.3 S 7 9 4 5 1023.1 1023.0 0.0
07/04:00am 11.3 9.8 8.5 83 1.4 S 6 7 3 4 1023.0 1022.9 0.0
07/03:30am 11.4 9.2 7.7 78 1.8 SSW 9 11 5 6 1023.1 1023.0 0.0
07/03:00am 11.5 9.4 8.2 80 1.6 SW 9 11 5 6 1023.3 1023.2 0.0
07/02:30am 11.6 10.2 9.0 84 1.3 SSW 6 9 3 5 1023.4 1023.3 0.0
07/02:00am 11.9 11.4 8.0 77 1.9 CALM 0 0 0 0 1023.6 1023.5 0.0
07/01:30am 11.7 11.0 8.7 82 1.5 SSW 2 7 1 4 1023.6 1023.5 0.0
07/01:00am 11.9 9.8 8.2 78 1.8 SSW 9 11 5 6 1023.7 1023.6 0.0
07/12:30am 12.0 9.5 8.1 77 1.9 SSE 11 15 6 8 1023.7 1023.6 0.0
07/12:00am 11.9 10.3 8.9 82 1.5 SW 7 9 4 5 1023.7 1023.6 0.0
 
Date/Time
EST
Temp
°C
App
Temp
°C
Dew
Point
°C
Rel
Hum
%
Delta-T
°C
Wind Press
QNH
hPa
Press
MSL
hPa
Rain since
9am
mm
Dir  Spd
km/h
Gust
km/h
Spd
kts
Gust
kts
06/11:30pm 12.1 9.8 8.9 81 1.6 WSW 11 13 6 7 1023.7 1023.6 0.0
06/11:00pm 12.0 10.0 8.8 81 1.6 SW 9 13 5 7 1023.9 1023.8 0.0
06/10:30pm 12.4 9.9 8.1 75 2.1 SSW 11 15 6 8 1023.9 1023.8 0.0
06/10:00pm 12.5 10.4 8.3 75 2.1 SSW 9 13 5 7 1024.0 1023.9 0.0
06/09:30pm 12.5 10.4 8.3 75 2.1 SSW 9 13 5 7 1024.1 1024.0 0.0
06/09:00pm 12.5 10.6 8.9 79 1.8 SSW 9 13 5 7 1024.1 1024.0 0.0
06/08:30pm 12.7 10.3 8.7 76 2.0 SSW 11 15 6 8 1023.9 1023.8 0.0
06/08:00pm 12.6 10.9 8.4 75 2.1 S 7 13 4 7 1023.5 1023.4 0.0
06/07:30pm 12.8 10.8 8.6 75 2.1 S 9 11 5 6 1023.4 1023.3 0.0
06/07:00pm 13.0 10.5 8.2 72 2.4 S 11 13 6 7 1023.2 1023.1 0.0
06/06:30pm 13.0 10.0 7.9 71 2.5 S 13 15 7 8 1022.9 1022.8 0.0
06/06:00pm 13.4 10.3 7.3 66 3.0 S 13 17 7 9 1022.6 1022.5 0.0
06/05:30pm 13.8 10.2 6.8 62 3.4 S 15 19 8 10 1022.4 1022.3 0.0
06/05:00pm 13.9 10.4 7.4 65 3.2 SSE 15 22 8 12 1022.2 1022.1 0.0
06/04:30pm 14.3 10.5 7.4 63 3.4 S 17 20 9 11 1021.9 1021.8 0.0
06/04:00pm 14.8 10.7 6.1 56 4.2 S 17 22 9 12 1021.8 1021.7 0.0
06/03:30pm 14.7 10.6 6.4 57 4.0 S 17 22 9 12 1021.8 1021.7 0.0
06/03:00pm 14.8 10.0 5.8 55 4.3 S 20 28 11 15 1021.7 1021.6 0.0
06/02:30pm 15.3 11.7 4.9 50 4.9 SSW 13 20 7 11 1021.6 1021.5 0.0
06/02:00pm 15.1 10.8 5.2 51 4.7 SSW 17 26 9 14 1021.6 1021.5 0.0
06/01:30pm 14.8 10.0 4.5 50 4.8 SSW 19 22 10 12 1021.6 1021.5 0.0
06/01:00pm 15.1 11.8 6.2 55 4.3 S 13 20 7 11 1021.8 1021.7 0.0
06/12:30pm 14.9 10.5 6.5 57 4.1 S 19 24 10 13 1021.9 1021.8 0.0
06/12:00pm 15.0 10.4 5.6 53 4.5 SSW 19 24 10 13 1021.9 1021.8 0.0
06/11:30am 15.0 10.6 5.0 51 4.7 SW 17 22 9 12 1021.9 1021.8 0.0
06/11:00am 14.6 10.7 5.3 53 4.4 WSW 15 22 8 12 1022.0 1021.9 0.0
06/10:30am 14.9 11.2 6.5 57 4.1 SSW 15 22 8 12 1021.9 1021.8 0.0
06/10:00am 13.7 10.2 7.1 64 3.2 WSW 15 19 8 10 1021.8 1021.7 0.0
06/09:30am 13.8 10.3 8.6 71 2.6 W 17 22 9 12 1021.6 1021.5 0.0
06/09:00am 12.9 9.3 8.5 74 2.2 W 17 20 9 11 1021.4 1021.3 2.2
06/08:30am 11.9 8.3 8.3 78 1.8 W 17 26 9 14 1021.3 1021.2 2.2
06/08:00am 11.1 7.9 8.5 84 1.3 W 15 19 8 10 1020.9 1020.8 2.2
06/07:30am 10.0 7.1 8.1 88 0.9 W 13 15 7 8 1020.4 1020.3 2.2
06/07:00am 9.0 6.0 7.7 91 0.6 WNW 13 15 7 8 1019.9 1019.8 2.2
06/06:30am 9.2 6.2 7.7 90 0.7 W 13 15 7 8 1019.6 1019.5 2.2
06/06:00am 9.5 6.2 8.1 91 0.7 W 15 17 8 9 1019.1 1018.9 2.2
06/05:30am 10.1 6.9 8.3 88 0.9 W 15 17 8 9 1018.7 1018.5 2.2
06/05:00am 9.6 6.4 8.4 92 0.6 W 15 17 8 9 1018.2 1018.0 2.2
06/04:30am 9.8 7.0 8.4 91 0.7 W 13 15 7 8 1017.8 1017.7 2.2
06/04:00am 9.6 6.7 8.2 91 0.7 W 13 15 7 8 1017.5 1017.4 2.2
06/03:30am 10.0 6.5 8.6 91 0.7 W 17 19 9 10 1017.1 1017.0 2.2
06/03:00am 9.2 5.8 7.7 90 0.7 W 15 17 8 9 1016.9 1016.8 2.2
06/02:30am 9.1 6.1 7.9 92 0.6 W 13 15 7 8 1016.7 1016.6 2.2
06/02:00am 8.6 5.6 7.8 95 0.4 WNW 13 15 7 8 1016.5 1016.4 2.2
06/01:30am 9.5 6.6 8.3 92 0.6 WNW 13 15 7 8 1016.4 1016.3 2.2
06/01:00am 9.8 7.0 8.6 92 0.6 WNW 13 15 7 8 1016.2 1016.1 2.2
06/12:30am 10.9 8.3 9.3 90 0.8 WNW 13 15 7 8 1016.0 1015.9 2.2
06/12:00am 11.5 8.7 9.9 90 0.8 WNW 15 19 8 10 1015.7 1015.6 2.2
 
Date/Time
EST
Temp
°C
App
Temp
°C
Dew
Point
°C
Rel
Hum
%
Delta-T
°C
Wind Press
QNH
hPa
Press
MSL
hPa
Rain since
9am
mm
Dir  Spd
km/h
Gust
km/h
Spd
kts
Gust
kts
05/11:30pm 11.6 9.6 10.2 91 0.7 WNW 11 11 6 6 1016.0 1015.9 2.2
05/11:00pm 11.6 9.7 10.4 92 0.6 WSW 11 11 6 6 1015.8 1015.7 2.2
05/10:30pm 11.8 9.1 10.2 90 0.8 WNW 15 19 8 10 1015.7 1015.6 2.2
05/10:00pm 12.1 9.9 10.8 92 0.7 WNW 13 17 7 9 1015.5 1015.4 2.2
05/09:30pm 12.0 10.2 11.0 94 0.5 WNW 11 13 6 7 1015.2 1015.1 2.2
05/09:00pm 12.0 10.6 11.0 94 0.5 WNW 9 11 5 6 1014.9 1014.8 2.2
05/08:30pm 12.0 9.8 10.7 92 0.7 WSW 13 20 7 11 1014.3 1014.2 2.2
05/08:00pm 12.2 9.7 10.9 92 0.7 WSW 15 22 8 12 1014.1 1014.0 2.2
05/07:30pm 12.4 9.5 10.9 90 0.8 WSW 17 26 9 14 1013.6 1013.5 2.2
05/07:00pm 12.5 6.7 10.8 89 0.9 WSW 32 41 17 22 1012.8 1012.7 2.0
05/06:55pm 12.9 7.4 10.6 86 1.2 WSW 30 41 16 22 1012.6 1012.5 2.0
05/06:30pm 14.1 11.2 11.1 82 1.6 W 17 22 9 12 1011.6 1011.4 2.0
05/06:00pm 14.1 11.8 11.9 86 1.2 W 15 17 8 9 1010.9 1010.7 2.0
05/05:30pm 14.2 11.8 12.6 90 0.9 W 17 24 9 13 1010.4 1010.2 2.0
05/05:12pm 14.3 11.9 12.5 89 1.0 W 17 22 9 12 1010.1 1009.9 2.0
05/05:00pm 14.3 11.6 12.9 91 0.8 WSW 19 28 10 15 1009.8 1009.6 2.0
05/04:57pm 14.3 11.4 12.9 91 0.8 WSW 20 28 11 15 1009.7 1009.5 2.0
05/04:30pm 14.9 13.3 12.7 87 1.2 WSW 13 17 7 9 1009.3 1009.1 1.4
05/04:00pm 14.7 11.9 12.7 88 1.1 W 19 26 10 14 1008.8 1008.7 1.4
05/03:48pm 14.1 9.6 12.5 90 0.9 W 28 35 15 19 1008.9 1008.8 1.4
05/03:30pm 14.1 10.7 12.5 90 0.9 WSW 22 32 12 17 1008.6 1008.5 1.4
05/03:18pm 14.3 10.7 12.9 91 0.8 WSW 24 39 13 21 1008.6 1008.5 1.2
05/03:15pm 14.5 11.6 12.9 90 0.9 WSW 20 32 11 17 1008.6 1008.5 1.0
05/03:12pm 14.9 12.1 12.5 85 1.3 WSW 19 32 10 17 1008.6 1008.5 0.6
05/03:00pm 14.4 10.5 12.0 85 1.3 WSW 24 35 13 19 1008.4 1008.3 0.6
05/02:30pm 14.2 10.5 12.6 90 0.9 WSW 24 32 13 17 1008.2 1008.1 0.4
05/02:29pm 14.2 10.5 12.6 90 0.9 WSW 24 32 13 17 1008.1 1008.0 0.4
05/02:17pm 14.6 9.4 12.8 89 1.0 WSW 32 48 17 26 1008.0 1007.9 0.2
05/02:00pm 16.8 10.5 10.9 68 3.2 WNW 35 46 19 25 1007.6 1007.5 0.0
05/01:30pm 16.4 11.2 11.6 73 2.6 WNW 30 48 16 26 1007.4 1007.3 0.0
05/01:00pm 16.5 11.0 10.5 67 3.2 NNW 30 48 16 26 1007.2 1007.1 0.0
05/12:30pm 15.9 9.7 10.0 68 3.1 NNW 33 52 18 28 1007.4 1007.3 0.0
05/12:00pm 15.8 7.9 9.5 66 3.3 NNW 41 59 22 32 1007.1 1007.0 0.0
05/11:46am 16.0 7.6 9.1 63 3.6 NNW 43 80 23 43 1007.0 1006.9 0.0
05/11:30am 16.0 8.8 9.3 64 3.5 NNW 37 59 20 32 1007.1 1007.0 0.0
05/11:00am 15.2 7.5 8.5 64 3.4 NNW 39 59 21 32 1007.2 1007.1 0.0
05/10:30am 14.8 6.3 8.5 66 3.2 NNW 43 61 23 33 1007.0 1006.9 0.0
05/10:00am 13.8 6.3 8.0 68 2.9 NNW 37 56 20 30 1006.8 1006.7 0.0
05/09:30am 13.7 5.1 8.1 69 2.8 NNW 43 69 23 37 1006.6 1006.5 0.0
05/09:00am 13.2 4.3 7.5 68 2.8 NNW 44 63 24 34 1006.6 1006.5 2.0
05/08:30am 12.9 4.8 7.2 68 2.8 NNW 39 61 21 33 1006.5 1006.4 -
05/08:00am 11.8 3.2 6.3 69 2.6 N 41 65 22 35 1006.4 1006.3 -
05/07:30am 11.5 3.2 6.0 69 2.6 NNW 39 67 21 36 1006.1 1006.0 -
05/07:00am 10.6 3.6 5.9 73 2.2 NNW 32 50 17 27 1005.9 1005.8 -
05/06:30am 10.5 2.7 5.0 69 2.5 NNW 35 65 19 35 1006.3 1006.2 2.4
05/06:02am 9.9 2.5 5.1 72 2.2 NNW 33 52 18 28 1005.7 1005.6 2.4
05/06:00am 10.0 2.2 4.7 69 2.4 NNW 35 52 19 28 1005.6 1005.5 2.4
05/05:49am 9.5 2.7 5.1 74 2.0 NNW 30 50 16 27 1005.9 1005.8 2.4
05/05:30am 9.7 2.8 4.6 70 2.3 N 30 44 16 24 1006.0 1005.9 2.4
05/05:17am 9.4 2.9 4.5 71 2.2 N 28 43 15 23 1006.3 1006.2 -
05/05:00am 8.6 4.2 4.8 77 1.7 N 17 24 9 13 1006.5 1006.4 -
05/04:30am 8.7 2.1 4.4 74 1.9 N 28 37 15 20 1006.5 1006.4 -
05/04:00am 8.8 2.3 4.5 74 1.9 N 28 32 15 17 1006.9 1006.8 2.4
05/03:30am 8.5 2.0 4.7 77 1.7 N 28 32 15 17 1007.3 1007.2 2.4
05/03:00am 8.8 2.6 4.5 74 1.9 N 26 28 14 15 1007.0 1006.9 2.4
05/03:30am 9.0 2.5 4.5 73 2.0 N 28 33 15 18 1006.7 1006.6 2.4
05/03:29am 8.7 2.5 4.4 74 1.9 N 26 32 14 17 1007.3 - -
05/03:00am 8.5 3.5 4.4 75 1.8 N 20 28 11 15 1007.4 1007.3 2.4
05/02:30am 9.4 3.4 3.2 65 2.7 N 24 32 13 17 1007.8 1007.7 2.4
05/02:00am 9.0 3.4 3.5 68 2.4 N 22 30 12 16 1007.7 1007.6 2.4
05/01:30am 8.2 3.3 4.1 75 1.8 N 19 24 10 13 1007.9 1007.8 2.4
05/01:00am 7.4 2.6 4.4 81 1.3 N 19 20 10 11 1008.4 1008.3 2.4
05/12:30am 8.2 3.6 3.8 74 1.9 N 17 19 9 10 1008.4 1008.3 2.4
05/12:00am 8.6 4.1 4.1 73 2.0 N 17 22 9 12 1008.4 1008.3 2.4
 
Date/Time
EST
Temp
°C
App
Temp
°C
Dew
Point
°C
Rel
Hum
%
Delta-T
°C
Wind Press
QNH
hPa
Press
MSL
hPa
Rain since
9am
mm
Dir  Spd
km/h
Gust
km/h
Spd
kts
Gust
kts
04/11:30pm 8.4 4.0 4.6 77 1.7 N 17 20 9 11 1008.3 1008.2 2.4
04/11:00pm 8.4 3.9 4.3 75 1.8 NNW 17 26 9 14 1008.3 1008.2 2.4
04/10:30pm 8.3 2.8 4.2 75 1.8 NW 22 32 12 17 1008.0 1007.9 2.4
04/10:00pm 8.2 3.4 4.4 77 1.7 NW 19 26 10 14 1007.7 1007.6 2.4
04/09:30pm 8.2 3.7 4.4 77 1.7 NNW 17 20 9 11 1007.5 1007.4 2.4
04/09:00pm 8.0 2.6 4.6 79 1.5 WNW 22 32 12 17 1007.0 1006.9 2.4
04/08:30pm 8.7 1.8 4.7 76 1.8 WNW 30 41 16 22 1006.6 1006.5 2.4
04/08:20pm 9.0 1.7 4.3 72 2.1 WNW 32 46 17 25 1006.5 1006.4 2.4
04/08:00pm 8.4 4.0 4.6 77 1.7 WNW 17 24 9 13 1006.2 1006.1 2.4
04/07:30pm 7.5 4.4 5.7 88 0.8 WSW 11 17 6 9 1005.7 1005.6 2.4
04/07:00pm 8.4 4.3 6.0 85 1.1 WSW 17 24 9 13 1005.0 1004.9 2.4
04/06:31pm 9.0 2.7 5.5 79 1.6 WSW 28 50 15 27 1004.8 1004.6 2.4
04/06:30pm 9.0 3.0 5.5 79 1.6 WSW 26 50 14 27 1004.7 1004.5 2.4
04/06:00pm 8.6 3.1 6.0 84 1.2 W 24 32 13 17 1004.0 1003.8 2.2
04/05:30pm 8.2 -1.2 5.6 84 1.2 WSW 44 57 24 31 1003.2 1003.0 2.2
04/05:29pm 8.2 -1.2 5.6 84 1.2 WSW 44 65 24 35 1003.3 1003.1 1.8
04/05:16pm 11.0 3.1 4.1 62 3.1 W 35 80 19 43 1002.6 1002.4 1.4
04/05:00pm 13.2 6.2 6.1 62 3.4 W 32 52 17 28 1002.2 1002.0 1.4
04/04:52pm 13.2 6.3 6.4 63 3.3 WNW 32 52 17 28 1002.0 1001.8 1.4
04/04:30pm 12.1 5.3 6.7 69 2.6 W 32 39 17 21 1001.9 1001.7 1.4
04/04:00pm 11.0 5.9 7.5 79 1.7 W 24 32 13 17 1002.0 1001.8 1.4
04/03:30pm 10.7 3.8 7.4 80 1.6 WSW 33 44 18 24 1001.9 1001.7 1.4
04/03:03pm 9.7 1.4 7.8 88 0.9 WSW 41 59 22 32 1001.8 1001.6 1.2
04/03:00pm 9.7 0.9 7.4 85 1.1 WSW 43 59 23 32 1001.8 1001.6 1.2
04/02:50pm 10.3 2.0 7.6 83 1.3 WSW 41 69 22 37 1001.4 1001.2 1.0
04/02:33pm 12.1 4.9 5.0 62 3.3 W 32 54 17 29 1000.7 1000.5 1.0
04/02:30pm 15.2 8.4 5.2 51 4.8 W 30 39 16 21 1000.3 1000.2 1.0
04/02:00pm 14.6 9.7 7.1 60 3.7 W 22 32 12 17 1000.0 999.9 1.0
04/01:30pm 12.0 7.0 8.0 76 2.0 W 24 32 13 17 1000.5 1000.3 1.0
04/01:00pm 12.0 3.7 5.9 66 2.9 WSW 39 57 21 31 1000.7 1000.5 0.4
04/12:30pm 14.3 7.4 6.3 58 3.9 W 32 43 17 23 1000.1 1000.0 0.4
04/12:00pm 13.9 6.5 6.8 62 3.5 W 35 48 19 26 999.9 999.8 0.4
04/11:30am 13.9 7.6 8.8 71 2.6 WSW 32 50 17 27 999.8 999.7 0.4
04/11:10am 12.6 6.6 10.1 85 1.3 W 32 52 17 28 1000.0 999.9 0.4
04/11:00am 13.1 7.8 9.8 80 1.7 W 28 35 15 19 999.9 999.8 0.4
04/10:30am 12.2 7.4 10.3 88 1.0 W 26 37 14 20 999.9 999.8 0.4
04/10:22am 12.1 7.8 10.6 90 0.8 WSW 24 33 13 18 999.8 999.7 0.4
04/10:00am 12.8 7.5 9.9 82 1.5 W 28 37 15 20 999.3 999.2 0.0
04/09:30am 12.8 7.1 9.7 81 1.6 W 30 39 16 21 998.8 998.7 0.0

Latest Capital City Observations: Canberra | Sydney | Melbourne | Brisbane | Adelaide | Perth | Hobart | Darwin

Other formats

Comma delimited format used in spreadsheet applications
http://www.bom.gov.au/fwo/IDV60901/IDV60901.94866.axf

JavaScript Object Notation format (JSON) in row-major order
http://www.bom.gov.au/fwo/IDV60901/IDV60901.94866.json

Data quality

Most of these data are generated automatically and are frequently updated. Quality checks on data are not normally performed. It is possible for incorrect values to appear. Refer to information at About Latest Weather Observations and please check the disclaimer before using these data.